Time;durP1;ratioP1;P1;durP2;ratioP2;P2;SDS_P1;SDS_P2;PMS_P1;PMS_P2;Temp;Humidity;BMP_temperature;BMP_pressure;BME280_temperature;BME280_humidity;BME280_pressure;Samples;Min_cycle;Max_cycle;Signal;HPM_P1;HPM_P2
2023/05/22 00:01:36;;;;;;;9.73;8.73;;;16.00;99.90;;;;;;5036895;28;20540;-76
2023/05/22 00:04:04;;;;;;;8.17;7.47;;;15.90;99.90;;;;;;5044487;28;20584;-76
2023/05/22 00:06:32;;;;;;;9.40;8.50;;;15.70;99.90;;;;;;5040441;28;21032;-76
2023/05/22 00:08:59;;;;;;;8.30;7.60;;;15.60;99.90;;;;;;5033191;28;20973;-76
2023/05/22 00:11:27;;;;;;;8.90;8.17;;;15.40;99.90;;;;;;5038930;28;20558;-76
2023/05/22 00:13:54;;;;;;;9.47;8.77;;;15.40;99.90;;;;;;5042367;28;20502;-76
2023/05/22 00:16:20;;;;;;;9.80;8.40;;;15.30;99.90;;;;;;5046121;28;20519;-76
2023/05/22 00:18:48;;;;;;;9.37;8.67;;;15.30;99.90;;;;;;5038848;28;20819;-76
2023/05/22 00:21:17;;;;;;;9.20;8.40;;;15.40;99.90;;;;;;5044783;28;20483;-76
2023/05/22 00:23:44;;;;;;;8.87;7.90;;;15.40;99.90;;;;;;5046957;28;20518;-76
2023/05/22 00:26:14;;;;;;;9.23;8.53;;;15.30;99.90;;;;;;5040516;28;20571;-76
2023/05/22 00:28:42;;;;;;;9.40;8.40;;;15.30;99.90;;;;;;5037771;28;20461;-76
2023/05/22 00:31:09;;;;;;;11.20;8.30;;;15.30;99.90;;;;;;5043658;28;20454;-76
2023/05/22 00:33:35;;;;;;;13.93;11.43;;;15.20;99.90;;;;;;5041164;28;21073;-76
2023/05/22 00:36:03;;;;;;;8.50;7.90;;;15.20;99.90;;;;;;5044435;28;20550;-76
2023/05/22 00:38:32;;;;;;;9.57;7.90;;;15.10;99.90;;;;;;5034122;28;20442;-76
2023/05/22 00:40:59;;;;;;;8.60;7.80;;;15.10;99.90;;;;;;5038814;28;20522;-76
2023/05/22 00:43:27;;;;;;;9.97;9.17;;;15.10;99.90;;;;;;5037500;28;20434;-76
2023/05/22 00:45:54;;;;;;;9.20;8.40;;;15.00;99.90;;;;;;5039984;28;20520;-76
2023/05/22 00:48:22;;;;;;;10.30;8.63;;;15.00;99.90;;;;;;5028944;28;20451;-76
2023/05/22 00:50:49;;;;;;;8.50;7.80;;;14.90;99.90;;;;;;5046244;28;20496;-76
2023/05/22 00:53:19;;;;;;;9.60;8.73;;;14.80;99.90;;;;;;5042700;28;20438;-76
2023/05/22 00:55:47;;;;;;;10.27;8.37;;;14.80;99.90;;;;;;5040986;28;20525;-76
2023/05/22 00:58:17;;;;;;;9.00;8.20;;;14.70;99.90;;;;;;5044305;28;20457;-76
2023/05/22 01:00:45;;;;;;;9.47;8.67;;;14.60;99.90;;;;;;5040735;28;20518;-76
2023/05/22 01:03:12;;;;;;;8.60;7.90;;;14.50;99.90;;;;;;5035763;28;20442;-76
2023/05/22 01:05:40;;;;;;;9.67;8.97;;;14.40;99.90;;;;;;5040504;28;20485;-76
2023/05/22 01:08:08;;;;;;;9.33;8.60;;;14.30;99.90;;;;;;5038549;28;20445;-76
2023/05/22 01:10:37;;;;;;;9.73;8.93;;;14.20;99.90;;;;;;5038280;28;20909;-76
2023/05/22 01:13:17;;;;;;;9.53;8.73;;;14.20;99.90;;;;;;5045288;28;20449;-76
2023/05/22 01:15:51;;;;;;;9.70;8.83;;;14.20;99.90;;;;;;5034796;28;20482;-76
2023/05/22 01:18:28;;;;;;;9.47;8.67;;;14.30;99.90;;;;;;5038637;28;20558;-76
2023/05/22 01:21:06;;;;;;;9.40;8.70;;;14.40;99.90;;;;;;5030674;28;20474;-76
2023/05/22 01:23:56;;;;;;;10.03;9.13;;;14.40;99.90;;;;;;5039476;28;20478;-76
2023/05/22 01:27:04;;;;;;;10.73;9.80;;;14.40;99.90;;;;;;5035534;28;20525;-76
2023/05/22 01:29:47;;;;;;;8.70;7.97;;;14.40;99.90;;;;;;5029388;28;20485;-76
2023/05/22 01:32:20;;;;;;;10.53;7.97;;;14.30;99.90;;;;;;5039234;28;20469;-76
2023/05/22 01:34:52;;;;;;;11.80;10.80;;;14.20;99.90;;;;;;5039034;28;20445;-78
2023/05/22 01:37:21;;;;;;;10.03;9.13;;;14.20;99.90;;;;;;5047551;28;20441;-76
2023/05/22 01:39:51;;;;;;;10.60;9.50;;;14.30;99.90;;;;;;5035778;28;20444;-76
2023/05/22 01:42:18;;;;;;;10.40;9.50;;;14.30;99.90;;;;;;5034712;28;20488;-76
2023/05/22 01:44:45;;;;;;;10.33;9.40;;;14.40;99.90;;;;;;5007419;28;1129778;-76
2023/05/22 01:47:12;;;;;;;9.43;8.43;;;14.30;99.90;;;;;;5039422;28;20192;-76
2023/05/22 01:49:40;;;;;;;9.60;8.70;;;14.30;99.90;;;;;;5034836;28;20506;-76
2023/05/22 01:52:14;;;;;;;10.40;9.50;;;14.30;99.90;;;;;;5043470;28;20462;-76
2023/05/22 01:54:47;;;;;;;10.43;9.57;;;14.20;99.90;;;;;;5039437;28;20457;-76
2023/05/22 01:57:20;;;;;;;9.90;9.20;;;14.20;99.90;;;;;;5036834;28;20800;-76
2023/05/22 01:59:53;;;;;;;10.70;9.60;;;14.10;99.90;;;;;;5039291;28;20477;-76
2023/05/22 02:02:22;;;;;;;11.57;10.47;;;14.00;99.90;;;;;;5032497;28;21144;-76
2023/05/22 02:04:56;;;;;;;11.47;10.40;;;14.10;99.90;;;;;;5046948;28;20558;-76
2023/05/22 02:07:24;;;;;;;10.30;9.50;;;14.00;99.90;;;;;;5043696;28;20450;-76
2023/05/22 02:09:53;;;;;;;10.77;9.87;;;14.00;99.90;;;;;;5044883;28;20470;-76
2023/05/22 02:12:21;;;;;;;11.93;9.90;;;14.00;99.90;;;;;;5037779;28;20461;-76
2023/05/22 02:14:48;;;;;;;9.70;8.73;;;13.90;99.90;;;;;;5039528;28;20639;-76
2023/05/22 02:17:16;;;;;;;11.33;10.30;;;13.90;99.90;;;;;;5042010;28;21344;-76
2023/05/22 02:19:43;;;;;;;11.40;10.47;;;14.00;99.90;;;;;;5044184;28;20803;-76
2023/05/22 02:22:13;;;;;;;11.57;10.40;;;13.90;99.90;;;;;;5032671;28;20481;-76
2023/05/22 02:24:41;;;;;;;10.13;9.23;;;13.90;99.90;;;;;;5043319;28;20456;-76
2023/05/22 02:27:09;;;;;;;11.70;10.60;;;13.90;99.90;;;;;;5035215;28;20571;-76
2023/05/22 02:29:36;;;;;;;11.33;10.23;;;13.90;99.90;;;;;;5037399;28;20462;-76
2023/05/22 02:32:03;;;;;;;9.73;8.73;;;13.90;99.90;;;;;;5039616;28;20497;-76
2023/05/22 02:34:31;;;;;;;12.33;11.13;;;13.90;99.90;;;;;;5037960;28;20473;-76
2023/05/22 02:36:59;;;;;;;12.10;11.00;;;13.80;99.90;;;;;;5036875;28;20468;-76
2023/05/22 02:39:27;;;;;;;10.97;9.70;;;13.80;99.90;;;;;;5039982;28;20499;-76
2023/05/22 02:41:54;;;;;;;10.77;9.77;;;13.80;99.90;;;;;;5037566;28;20474;-76
2023/05/22 02:44:21;;;;;;;12.83;10.30;;;13.70;99.90;;;;;;5036104;28;20585;-76
2023/05/22 02:46:48;;;;;;;12.57;11.47;;;13.60;99.90;;;;;;5037302;28;20890;-76
2023/05/22 02:49:15;;;;;;;11.43;10.53;;;13.60;99.90;;;;;;5038445;28;20472;-76
2023/05/22 02:51:46;;;;;;;12.00;10.43;;;13.40;99.90;;;;;;5040029;28;20465;-76
2023/05/22 02:54:14;;;;;;;13.90;11.57;;;13.30;99.90;;;;;;5041129;28;20453;-76
2023/05/22 02:56:43;;;;;;;11.40;10.10;;;13.30;99.90;;;;;;5037386;28;20538;-76
2023/05/22 02:59:10;;;;;;;11.83;10.77;;;13.20;99.90;;;;;;5039452;28;20535;-76
2023/05/22 03:01:37;;;;;;;11.97;10.97;;;13.10;99.90;;;;;;5043895;28;21213;-76
2023/05/22 03:04:05;;;;;;;11.10;10.10;;;13.10;99.90;;;;;;5043493;28;20445;-76
2023/05/22 03:06:33;;;;;;;13.30;11.97;;;13.20;99.90;;;;;;5045727;28;20493;-76
2023/05/22 03:09:00;;;;;;;11.37;10.43;;;13.20;99.90;;;;;;5045317;28;20465;-76
2023/05/22 03:11:26;;;;;;;11.83;10.73;;;13.10;99.90;;;;;;5032553;28;20449;-76
2023/05/22 03:13:55;;;;;;;11.40;10.50;;;13.00;99.90;;;;;;5040544;28;21099;-76
2023/05/22 03:16:22;;;;;;;11.43;10.33;;;12.90;99.90;;;;;;5032410;28;20464;-76
2023/05/22 03:18:50;;;;;;;11.70;10.70;;;12.90;99.90;;;;;;5041373;28;20968;-76
2023/05/22 03:21:17;;;;;;;12.10;10.70;;;12.90;99.90;;;;;;5040423;28;20479;-76
2023/05/22 03:23:45;;;;;;;11.50;10.43;;;13.00;99.90;;;;;;5044434;28;20453;-76
2023/05/22 03:26:12;;;;;;;11.20;10.20;;;13.20;99.90;;;;;;5039648;28;20809;-77
2023/05/22 03:28:39;;;;;;;11.77;10.57;;;13.20;99.90;;;;;;5040556;28;20550;-76
2023/05/22 03:31:08;;;;;;;11.70;10.60;;;13.30;99.90;;;;;;5038462;28;20928;-76
2023/05/22 03:33:35;;;;;;;11.43;10.33;;;13.50;99.90;;;;;;5041521;28;20561;-76
2023/05/22 03:36:02;;;;;;;11.37;10.07;;;13.70;99.90;;;;;;5036900;28;20516;-76
2023/05/22 03:38:29;;;;;;;11.53;10.20;;;13.80;99.90;;;;;;5034375;28;20445;-76
2023/05/22 03:40:56;;;;;;;11.07;9.77;;;13.90;99.90;;;;;;5042394;28;20487;-76
2023/05/22 03:43:23;;;;;;;11.83;10.63;;;14.00;99.90;;;;;;5041816;28;20974;-76
2023/05/22 03:45:50;;;;;;;10.70;9.70;;;14.00;99.90;;;;;;5042768;28;21243;-76
2023/05/22 03:48:18;;;;;;;11.53;10.43;;;14.10;99.90;;;;;;5040743;28;20551;-76
2023/05/22 03:50:45;;;;;;;9.83;8.93;;;14.10;99.90;;;;;;5044795;28;20437;-76
2023/05/22 03:53:12;;;;;;;10.03;9.20;;;14.10;99.90;;;;;;5035707;28;21070;-77
2023/05/22 03:55:39;;;;;;;10.73;9.80;;;14.10;99.90;;;;;;5035880;28;20488;-77
2023/05/22 03:58:06;;;;;;;11.60;10.57;;;14.20;99.90;;;;;;5032845;28;20464;-77
2023/05/22 04:00:33;;;;;;;11.00;10.00;;;14.20;99.90;;;;;;5039736;28;20936;-77
2023/05/22 04:03:00;;;;;;;9.23;8.40;;;14.20;99.90;;;;;;5034759;28;20522;-77
2023/05/22 04:05:29;;;;;;;10.23;9.33;;;14.30;99.90;;;;;;5033882;28;20513;-77
2023/05/22 04:07:55;;;;;;;10.90;10.00;;;14.40;99.90;;;;;;5040471;28;20461;-77
2023/05/22 04:10:22;;;;;;;9.40;8.50;;;14.50;99.90;;;;;;5045977;28;21218;-77
2023/05/22 04:12:50;;;;;;;11.43;10.37;;;14.60;99.90;;;;;;5030934;28;20481;-77
2023/05/22 04:15:17;;;;;;;10.07;9.20;;;14.70;99.90;;;;;;5041397;28;20535;-77
2023/05/22 04:17:44;;;;;;;10.53;9.53;;;14.70;99.90;;;;;;5035202;28;20973;-77
2023/05/22 04:20:12;;;;;;;9.60;8.70;;;14.70;99.90;;;;;;5039329;28;20985;-77
2023/05/22 04:22:41;;;;;;;10.30;9.30;;;14.70;99.90;;;;;;5033041;28;20481;-77
2023/05/22 04:25:09;;;;;;;13.20;11.35;;;14.80;99.90;;;;;;5034721;28;20563;-77
2023/05/22 04:27:36;;;;;;;10.20;9.30;;;14.80;99.90;;;;;;5037850;28;20461;-77
2023/05/22 04:30:04;;;;;;;9.83;8.93;;;14.80;99.90;;;;;;5035712;28;20446;-77
2023/05/22 04:32:31;;;;;;;10.13;8.17;;;14.90;99.90;;;;;;5038812;28;20579;-77
2023/05/22 04:34:59;;;;;;;8.70;8.00;;;15.00;99.90;;;;;;5042623;28;20491;-77
2023/05/22 04:37:27;;;;;;;9.13;8.40;;;15.10;99.90;;;;;;5046790;28;20461;-77
2023/05/22 04:39:57;;;;;;;8.70;8.00;;;15.10;99.90;;;;;;5036572;28;21156;-77
2023/05/22 04:42:24;;;;;;;10.63;9.53;;;15.20;99.90;;;;;;5038126;28;20458;-76
2023/05/22 04:44:53;;;;;;;7.50;6.90;;;15.30;99.90;;;;;;5031370;28;21182;-77
2023/05/22 04:47:21;;;;;;;10.70;9.60;;;15.40;99.90;;;;;;5041876;28;20484;-77
2023/05/22 04:49:48;;;;;;;9.27;8.40;;;15.50;99.90;;;;;;5040775;28;20991;-77
2023/05/22 04:52:15;;;;;;;9.43;8.70;;;15.50;99.90;;;;;;5044423;28;20493;-77
2023/05/22 04:54:43;;;;;;;10.33;9.40;;;15.60;99.90;;;;;;5037230;28;20478;-79
2023/05/22 04:57:11;;;;;;;10.17;8.53;;;15.70;99.90;;;;;;5040221;28;20486;-79
2023/05/22 04:59:38;;;;;;;10.20;9.30;;;15.70;99.90;;;;;;5046158;28;20438;-77
2023/05/22 05:02:05;;;;;;;11.53;8.90;;;15.70;99.90;;;;;;5039196;28;20465;-77
2023/05/22 05:04:33;;;;;;;9.33;8.70;;;15.80;99.90;;;;;;5029416;28;20443;-77
2023/05/22 05:07:01;;;;;;;9.90;9.00;;;15.90;99.90;;;;;;5036075;28;21134;-77
2023/05/22 05:09:28;;;;;;;10.03;9.13;;;16.10;99.90;;;;;;5042253;28;20887;-77
2023/05/22 05:11:55;;;;;;;10.20;9.40;;;16.20;99.90;;;;;;5034648;28;20557;-77
2023/05/22 05:14:24;;;;;;;9.83;9.07;;;16.20;99.90;;;;;;5045612;28;20542;-77
2023/05/22 05:16:51;;;;;;;8.80;7.93;;;16.30;99.90;;;;;;5038046;28;20441;-77
2023/05/22 05:19:20;;;;;;;9.93;9.17;;;16.30;99.90;;;;;;5038393;28;20459;-77
2023/05/22 05:21:48;;;;;;;9.50;8.60;;;16.30;99.90;;;;;;5047149;28;20988;-77
2023/05/22 05:24:16;;;;;;;9.53;8.63;;;16.40;99.90;;;;;;5043649;28;20466;-77
2023/05/22 05:26:42;;;;;;;9.60;8.90;;;16.40;99.90;;;;;;5042061;28;20518;-77
2023/05/22 05:29:09;;;;;;;9.00;8.20;;;16.50;99.90;;;;;;5044075;28;20931;-77
2023/05/22 05:31:38;;;;;;;9.17;8.20;;;16.60;99.90;;;;;;5041897;28;20490;-77
2023/05/22 05:34:05;;;;;;;8.13;7.43;;;16.50;99.90;;;;;;5034281;28;20908;-77
2023/05/22 05:36:32;;;;;;;10.40;9.40;;;16.70;99.90;;;;;;5044275;28;20933;-78
2023/05/22 05:38:59;;;;;;;9.97;9.07;;;16.90;99.90;;;;;;5036861;28;20458;-77
2023/05/22 05:41:27;;;;;;;9.47;8.57;;;16.80;99.90;;;;;;5040895;28;21215;-77
2023/05/22 05:43:56;;;;;;;10.33;9.43;;;17.00;99.90;;;;;;5039078;28;21034;-78
2023/05/22 05:46:23;;;;;;;9.50;8.70;;;17.10;99.90;;;;;;5043559;28;20988;-79
2023/05/22 05:48:52;;;;;;;8.63;8.00;;;17.20;99.90;;;;;;5040554;28;20460;-78
2023/05/22 05:51:20;;;;;;;9.20;8.47;;;17.30;99.90;;;;;;5047991;28;20504;-78
2023/05/22 05:53:47;;;;;;;9.83;8.70;;;17.40;99.90;;;;;;5038682;28;20463;-78
2023/05/22 05:56:14;;;;;;;8.67;7.97;;;17.60;99.90;;;;;;5046046;28;21303;-78
2023/05/22 05:58:41;;;;;;;8.73;8.03;;;17.70;99.90;;;;;;5041747;28;20546;-78
2023/05/22 06:01:08;;;;;;;8.50;7.70;;;17.80;99.90;;;;;;5034229;28;20463;-77
2023/05/22 06:03:35;;;;;;;8.57;7.87;;;17.90;99.90;;;;;;5036845;28;20797;-77
2023/05/22 06:06:04;;;;;;;8.60;8.00;;;18.10;99.90;;;;;;5045146;28;20485;-77
2023/05/22 06:08:31;;;;;;;8.57;7.87;;;18.20;99.90;;;;;;5033159;28;20440;-79
2023/05/22 06:10:58;;;;;;;9.73;7.67;;;18.40;99.90;;;;;;5036703;28;20451;-78
2023/05/22 06:13:24;;;;;;;8.53;7.90;;;18.20;99.90;;;;;;5034066;28;21092;-78
2023/05/22 06:15:51;;;;;;;8.80;7.40;;;18.30;99.90;;;;;;5036429;28;20522;-77
2023/05/22 06:18:18;;;;;;;9.30;8.40;;;18.60;99.90;;;;;;5034605;28;20447;-77
2023/05/22 06:20:45;;;;;;;8.97;8.13;;;18.80;99.90;;;;;;5043014;28;20541;-77
2023/05/22 06:23:13;;;;;;;8.43;7.80;;;18.70;99.90;;;;;;5039531;28;20933;-77
2023/05/22 06:25:40;;;;;;;8.63;7.83;;;18.80;99.90;;;;;;5036682;28;20458;-77
2023/05/22 06:28:07;;;;;;;8.73;8.03;;;19.00;99.90;;;;;;5033348;28;20976;-77
2023/05/22 06:30:35;;;;;;;12.33;8.73;;;19.10;99.90;;;;;;5044776;28;20534;-77
2023/05/22 06:33:02;;;;;;;9.00;8.17;;;19.20;99.90;;;;;;5040707;28;20515;-77
2023/05/22 06:35:30;;;;;;;8.27;7.47;;;19.30;99.90;;;;;;5034585;28;20493;-77
2023/05/22 06:37:57;;;;;;;7.97;7.40;;;19.40;99.90;;;;;;5040278;28;20461;-78
2023/05/22 06:40:26;;;;;;;8.00;7.40;;;19.50;99.90;;;;;;5028645;28;20541;-78
2023/05/22 06:42:53;;;;;;;8.27;7.63;;;19.80;99.90;;;;;;5046361;28;20775;-78
2023/05/22 06:45:20;;;;;;;8.20;7.50;;;19.80;99.90;;;;;;5036799;28;20517;-77
2023/05/22 06:47:47;;;;;;;9.33;8.43;;;19.80;99.90;;;;;;5033671;28;20490;-78
2023/05/22 06:50:14;;;;;;;8.53;7.60;;;20.00;99.90;;;;;;5037386;28;20482;-78
2023/05/22 06:52:40;;;;;;;9.33;7.60;;;20.10;99.90;;;;;;5039950;28;20920;-78
2023/05/22 06:55:08;;;;;;;8.13;7.53;;;20.20;99.90;;;;;;5038701;28;20512;-77
2023/05/22 06:57:37;;;;;;;9.57;6.93;;;20.30;99.90;;;;;;5044398;28;20523;-77
2023/05/22 07:00:09;;;;;;;8.43;7.73;;;20.50;99.90;;;;;;5037872;28;20457;-77
2023/05/22 07:02:36;;;;;;;8.50;6.40;;;20.60;99.90;;;;;;5041776;28;20566;-77
2023/05/22 07:05:03;;;;;;;8.03;7.23;;;20.50;99.90;;;;;;5043342;28;20501;-77
2023/05/22 07:07:30;;;;;;;8.30;7.47;;;20.60;99.90;;;;;;5039617;28;20848;-78
2023/05/22 07:09:57;;;;;;;6.90;6.17;;;20.70;99.90;;;;;;5033530;28;20922;-78
2023/05/22 07:12:25;;;;;;;6.53;5.93;;;20.80;99.90;;;;;;5040904;28;20461;-77
2023/05/22 07:14:53;;;;;;;6.70;6.10;;;20.90;99.90;;;;;;5038588;28;20456;-77
2023/05/22 07:17:21;;;;;;;7.50;6.80;;;20.90;99.90;;;;;;5036951;28;20460;-77
2023/05/22 07:19:48;;;;;;;7.27;6.50;;;21.00;99.90;;;;;;5041812;28;20470;-77
2023/05/22 07:22:16;;;;;;;7.50;6.73;;;21.00;99.90;;;;;;5035204;28;20517;-77
2023/05/22 07:24:43;;;;;;;6.90;6.30;;;21.00;99.90;;;;;;5036142;28;20440;-77
2023/05/22 07:27:11;;;;;;;7.83;7.17;;;21.10;99.90;;;;;;5038650;28;20489;-77
2023/05/22 07:29:38;;;;;;;7.10;6.40;;;21.10;99.90;;;;;;5044282;28;20465;-77
2023/05/22 07:32:07;;;;;;;8.03;6.57;;;21.20;99.90;;;;;;5036430;28;20499;-77
2023/05/22 07:34:34;;;;;;;8.17;6.40;;;21.60;99.90;;;;;;5040880;28;20920;-77
2023/05/22 07:37:07;;;;;;;7.83;7.17;;;21.80;99.90;;;;;;5041862;28;20723;-77
2023/05/22 07:39:34;;;;;;;7.30;6.70;;;21.80;99.90;;;;;;5031045;28;21055;-78
2023/05/22 07:42:01;;;;;;;7.67;7.03;;;21.80;99.90;;;;;;5042442;28;20466;-77
2023/05/22 07:44:28;;;;;;;7.17;6.67;;;21.70;99.90;;;;;;5044860;28;20534;-78
2023/05/22 07:46:55;;;;;;;7.47;6.77;;;21.70;99.90;;;;;;5037852;28;21017;-78
2023/05/22 07:49:25;;;;;;;7.00;6.50;;;21.70;99.90;;;;;;5033789;28;20466;-77
2023/05/22 07:51:52;;;;;;;7.77;7.03;;;21.80;99.90;;;;;;5036876;28;20513;-77
2023/05/22 07:54:19;;;;;;;7.17;6.67;;;22.10;99.90;;;;;;5035595;28;20453;-77
2023/05/22 07:56:46;;;;;;;8.03;7.30;;;22.10;99.90;;;;;;5042285;28;21085;-77
2023/05/22 07:59:13;;;;;;;7.17;6.43;;;21.90;99.90;;;;;;5042937;28;20451;-77
2023/05/22 08:01:41;;;;;;;9.37;7.73;;;22.20;99.90;;;;;;5041194;28;20453;-77
2023/05/22 08:04:08;;;;;;;7.60;7.00;;;22.20;99.90;;;;;;5033681;28;20467;-78
2023/05/22 08:06:37;;;;;;;8.60;7.90;;;22.50;99.90;;;;;;5035685;28;21346;-77
2023/05/22 08:09:04;;;;;;;7.00;6.30;;;22.80;99.90;;;;;;5037840;28;20467;-78
2023/05/22 08:11:31;;;;;;;6.47;5.97;;;22.80;99.90;;;;;;5031266;28;20451;-77
2023/05/22 08:13:58;;;;;;;8.27;7.57;;;22.80;99.90;;;;;;5036295;28;20807;-78
2023/05/22 08:16:25;;;;;;;7.40;6.80;;;23.00;99.90;;;;;;5042580;28;20445;-79
2023/05/22 08:18:52;;;;;;;6.70;6.20;;;23.20;99.90;;;;;;5042439;28;20944;-78
2023/05/22 08:21:19;;;;;;;7.70;6.00;;;23.30;99.90;;;;;;5043137;28;20444;-78
2023/05/22 08:23:47;;;;;;;6.80;6.30;;;23.20;99.90;;;;;;5039660;28;20454;-78
2023/05/22 08:26:15;;;;;;;7.60;7.10;;;23.10;99.90;;;;;;5033897;28;20464;-78
2023/05/22 08:28:43;;;;;;;7.37;6.33;;;23.40;99.90;;;;;;5042173;28;20518;-78
2023/05/22 08:31:10;;;;;;;7.00;6.50;;;23.50;99.90;;;;;;5043247;28;20445;-78
2023/05/22 08:33:37;;;;;;;7.97;7.17;;;23.40;99.90;;;;;;5039817;28;20442;-78
2023/05/22 08:36:04;;;;;;;6.30;5.77;;;23.40;99.90;;;;;;5045472;28;20924;-78
2023/05/22 08:38:31;;;;;;;6.83;6.30;;;23.40;99.90;;;;;;5040937;28;20778;-78
2023/05/22 08:41:00;;;;;;;6.67;6.10;;;23.60;99.90;;;;;;5040024;28;20456;-78
2023/05/22 08:43:28;;;;;;;7.07;6.43;;;23.80;98.70;;;;;;5037953;28;21171;-78
2023/05/22 08:46:00;;;;;;;6.70;6.10;;;23.80;99.90;;;;;;5047060;28;20448;-78
2023/05/22 08:48:30;;;;;;;6.87;6.27;;;24.00;99.90;;;;;;5040571;28;20542;-78
2023/05/22 08:51:02;;;;;;;6.43;6.03;;;24.20;98.70;;;;;;5037422;28;20573;-78
2023/05/22 08:53:30;;;;;;;5.93;5.60;;;24.50;98.80;;;;;;5042623;28;20453;-78
2023/05/22 08:55:59;;;;;;;5.83;5.27;;;24.40;97.70;;;;;;5039548;28;20507;-78
2023/05/22 08:58:27;;;;;;;6.43;5.93;;;24.20;96.90;;;;;;5036256;28;20465;-78
2023/05/22 09:00:54;;;;;;;6.83;5.40;;;24.50;96.40;;;;;;5042786;28;20461;-78
2023/05/22 09:03:22;;;;;;;6.20;5.67;;;24.60;95.40;;;;;;5035504;28;20537;-78
2023/05/22 09:05:51;;;;;;;5.93;5.63;;;24.50;95.10;;;;;;5034521;28;20449;-78
2023/05/22 09:08:18;;;;;;;6.27;5.87;;;24.60;96.50;;;;;;5033401;28;20496;-78
2023/05/22 09:10:45;;;;;;;6.53;5.93;;;24.80;97.60;;;;;;5034055;28;20464;-78
2023/05/22 09:13:25;;;;;;;5.90;5.50;;;25.10;97.10;;;;;;5029690;28;20540;-78
2023/05/22 09:15:52;;;;;;;7.30;5.47;;;25.20;95.20;;;;;;5034458;28;20451;-78
2023/05/22 09:18:20;;;;;;;6.30;5.80;;;24.90;94.30;;;;;;5038361;28;20498;-78
2023/05/22 09:20:47;;;;;;;5.40;5.10;;;25.00;95.60;;;;;;5043476;28;20472;-78
2023/05/22 09:23:16;;;;;;;5.50;5.10;;;25.10;96.10;;;;;;5034301;28;20445;-78
2023/05/22 09:25:46;;;;;;;7.50;5.60;;;25.40;95.90;;;;;;5046613;28;20819;-81
2023/05/22 09:28:14;;;;;;;5.27;4.83;;;25.30;93.30;;;;;;5040202;28;20892;-78
2023/05/22 09:30:42;;;;;;;4.90;4.50;;;25.50;93.50;;;;;;5044630;28;20490;-78
2023/05/22 09:33:09;;;;;;;7.10;6.40;;;25.70;91.60;;;;;;5035621;28;20465;-78
2023/05/22 09:35:37;;;;;;;5.33;4.90;;;25.80;91.40;;;;;;5036029;28;20480;-79
2023/05/22 09:38:05;;;;;;;5.50;4.47;;;25.80;91.60;;;;;;5035211;28;20872;-79
2023/05/22 09:40:34;;;;;;;5.97;5.57;;;25.90;90.60;;;;;;5037062;28;20463;-79
2023/05/22 09:43:02;;;;;;;5.23;4.83;;;26.00;91.80;;;;;;5034120;28;20550;-78
2023/05/22 09:45:34;;;;;;;5.47;4.97;;;26.00;90.60;;;;;;5030707;28;20491;-78
2023/05/22 09:48:01;;;;;;;4.60;4.30;;;26.10;89.50;;;;;;5039353;28;20517;-78
2023/05/22 09:50:27;;;;;;;4.70;4.33;;;25.80;89.90;;;;;;5038612;28;20441;-78
2023/05/22 09:52:55;;;;;;;5.50;5.00;;;26.00;87.30;;;;;;5037329;28;20845;-78
2023/05/22 09:55:23;;;;;;;5.37;4.97;;;26.20;87.50;;;;;;5034266;28;20962;-79
2023/05/22 09:57:52;;;;;;;5.40;4.97;;;26.30;89.60;;;;;;5038469;28;20516;-78
2023/05/22 10:00:19;;;;;;;6.10;5.60;;;26.40;85.00;;;;;;5040043;28;20462;-79
2023/05/22 10:02:49;;;;;;;5.73;5.23;;;26.50;86.80;;;;;;5040421;28;20983;-79
2023/05/22 10:05:20;;;;;;;5.47;5.07;;;26.50;84.00;;;;;;5038185;28;20556;-78
2023/05/22 10:07:50;;;;;;;5.57;5.07;;;26.70;89.20;;;;;;5030037;28;20978;-79
2023/05/22 10:10:20;;;;;;;5.90;5.50;;;26.90;90.70;;;;;;5037398;28;20460;-78
2023/05/22 10:12:53;;;;;;;5.27;4.80;;;26.80;82.90;;;;;;5028260;28;20439;-78
2023/05/22 10:15:21;;;;;;;5.83;5.37;;;26.50;82.90;;;;;;5033732;28;20465;-78
2023/05/22 10:17:49;;;;;;;5.63;5.20;;;26.80;81.60;;;;;;5039055;28;20454;-78
2023/05/22 10:20:17;;;;;;;6.40;5.90;;;26.90;83.00;;;;;;5042251;28;20942;-78
2023/05/22 10:22:46;;;;;;;5.17;4.67;;;26.50;83.60;;;;;;5047002;28;20501;-78
2023/05/22 10:25:13;;;;;;;4.80;4.40;;;26.70;77.00;;;;;;5045135;28;20832;-78
2023/05/22 10:27:41;;;;;;;6.30;5.43;;;27.10;75.00;;;;;;5046716;28;20475;-79
2023/05/22 10:30:18;;;;;;;5.33;4.83;;;27.50;83.10;;;;;;5046939;28;20448;-79
2023/05/22 10:32:50;;;;;;;5.00;4.70;;;27.30;77.30;;;;;;5042481;28;20456;-80
2023/05/22 10:35:24;;;;;;;5.60;5.10;;;27.30;80.00;;;;;;5036517;28;20565;-79
2023/05/22 10:37:53;;;;;;;5.40;5.00;;;27.40;76.00;;;;;;5046528;28;20448;-79
2023/05/22 10:40:29;;;;;;;6.37;5.80;;;27.30;77.50;;;;;;5044615;28;20464;-79
2023/05/22 10:43:00;;;;;;;5.90;5.50;;;27.50;75.70;;;;;;5038545;28;20448;-79
2023/05/22 10:45:28;;;;;;;5.17;4.73;;;27.30;82.30;;;;;;5032999;28;20475;-78
2023/05/22 10:48:08;;;;;;;5.27;4.97;;;27.20;83.20;;;;;;5042651;28;20484;-78
2023/05/22 10:50:37;;;;;;;5.43;4.93;;;26.80;78.60;;;;;;5035390;28;20464;-78
2023/05/22 10:53:22;;;;;;;7.23;5.23;;;26.90;71.90;;;;;;5040365;28;20455;-78
2023/05/22 10:55:50;;;;;;;4.80;4.40;;;26.80;72.30;;;;;;5032922;28;20557;-78
2023/05/22 10:58:17;;;;;;;5.60;5.03;;;27.10;71.20;;;;;;5045727;28;20467;-78
2023/05/22 11:00:44;;;;;;;4.90;4.27;;;27.00;76.70;;;;;;5045346;28;20467;-78
2023/05/22 11:03:11;;;;;;;5.47;4.73;;;26.60;68.90;;;;;;5033402;28;20968;-78
2023/05/22 11:05:41;;;;;;;5.10;4.70;;;26.50;73.80;;;;;;5030037;28;20466;-78
2023/05/22 11:08:46;;;;;;;4.70;4.30;;;26.60;81.80;;;;;;5044952;28;20485;-78
2023/05/22 11:11:13;;;;;;;5.00;4.60;;;26.20;71.60;;;;;;5044835;28;20586;-78
2023/05/22 11:13:42;;;;;;;4.90;4.50;;;26.30;71.50;;;;;;5036542;28;20520;-78
2023/05/22 11:16:10;;;;;;;5.13;4.67;;;26.40;70.60;;;;;;5037131;28;20459;-78
2023/05/22 11:18:37;;;;;;;5.43;5.00;;;26.70;67.40;;;;;;5032481;28;20448;-78
2023/05/22 11:21:10;;;;;;;4.60;4.20;;;26.80;63.00;;;;;;5045838;28;20448;-78
2023/05/22 11:23:37;;;;;;;4.50;4.20;;;27.00;70.10;;;;;;5046580;28;20464;-78
2023/05/22 11:26:23;;;;;;;5.10;4.63;;;27.40;72.70;;;;;;5046958;28;20452;-79
2023/05/22 11:28:52;;;;;;;4.53;4.23;;;27.60;69.90;;;;;;5044688;28;20580;-79
2023/05/22 11:31:21;;;;;;;5.53;4.10;;;27.50;68.70;;;;;;5045471;28;20450;-78
2023/05/22 11:33:48;;;;;;;4.37;4.07;;;27.40;58.70;;;;;;5045719;28;20978;-78
2023/05/22 11:36:17;;;;;;;4.60;4.30;;;27.50;62.50;;;;;;5047367;28;20530;-78
2023/05/22 11:38:44;;;;;;;4.87;4.57;;;27.50;64.00;;;;;;5046186;28;20460;-79
2023/05/22 11:41:12;;;;;;;5.20;4.90;;;27.80;66.50;;;;;;5047627;28;20497;-78
2023/05/22 11:43:42;;;;;;;4.80;4.50;;;27.70;65.50;;;;;;5045187;28;20548;-79
2023/05/22 11:46:10;;;;;;;3.90;3.60;;;27.90;61.70;;;;;;5047830;28;20522;-79
2023/05/22 11:48:40;;;;;;;5.63;3.93;;;28.00;56.60;;;;;;5042188;28;20574;-79
2023/05/22 11:51:08;;;;;;;4.90;4.50;;;27.80;64.30;;;;;;5050545;28;20989;-79
2023/05/22 11:53:37;;;;;;;6.80;6.20;;;27.80;63.40;;;;;;5049413;28;20465;-79
2023/05/22 11:56:05;;;;;;;6.23;4.50;;;27.70;63.90;;;;;;5050771;28;20859;-79
2023/05/22 11:58:33;;;;;;;4.40;4.10;;;27.70;64.90;;;;;;5049354;28;20530;-79
2023/05/22 12:01:04;;;;;;;4.50;4.20;;;27.80;58.00;;;;;;5048922;28;20464;-79
2023/05/22 12:03:31;;;;;;;4.97;4.37;;;27.70;56.80;;;;;;5044456;28;20460;-79
2023/05/22 12:05:58;;;;;;;4.27;3.97;;;27.90;63.30;;;;;;5049802;28;20459;-78
2023/05/22 12:08:26;;;;;;;4.37;4.03;;;27.70;60.20;;;;;;5048793;28;21210;-78
2023/05/22 12:10:54;;;;;;;4.83;4.13;;;27.90;58.90;;;;;;5049383;28;20509;-78
2023/05/22 12:13:26;;;;;;;4.63;4.07;;;27.90;56.80;;;;;;5036462;28;20504;-78
2023/05/22 12:15:55;;;;;;;4.60;4.30;;;27.90;55.60;;;;;;5043116;28;20540;-78
2023/05/22 12:18:22;;;;;;;4.60;4.30;;;28.00;59.60;;;;;;5040784;28;20449;-78
2023/05/22 12:20:53;;;;;;;4.23;3.60;;;28.10;60.40;;;;;;5049174;28;20476;-78
2023/05/22 12:23:24;;;;;;;4.07;3.80;;;27.90;57.80;;;;;;5049325;28;20448;-78
2023/05/22 12:26:00;;;;;;;6.43;5.23;;;27.30;58.50;;;;;;5048601;28;20466;-78
2023/05/22 12:28:28;;;;;;;5.27;4.50;;;27.00;59.30;;;;;;5048531;28;20482;-78
2023/05/22 12:30:55;;;;;;;4.50;4.20;;;26.70;57.60;;;;;;5049454;28;20452;-78
2023/05/22 12:33:27;;;;;;;4.10;3.90;;;26.60;58.10;;;;;;5048720;28;20525;-77
2023/05/22 12:35:57;;;;;;;5.13;4.63;;;26.70;61.50;;;;;;5049380;28;20467;-77
2023/05/22 12:38:25;;;;;;;4.70;4.30;;;26.90;59.80;;;;;;5047733;28;20552;-77
2023/05/22 12:40:52;;;;;;;3.67;3.27;;;27.40;60.90;;;;;;5048415;28;20467;-77
2023/05/22 12:43:22;;;;;;;4.20;3.90;;;27.40;58.80;;;;;;5048417;28;20448;-77
2023/05/22 12:45:49;;;;;;;4.50;3.50;;;27.80;57.80;;;;;;5049575;28;20506;-77
2023/05/22 12:48:16;;;;;;;3.97;3.77;;;28.00;56.10;;;;;;5047981;28;20487;-77
2023/05/22 12:50:45;;;;;;;5.17;4.77;;;28.30;59.10;;;;;;5048510;28;20464;-77